createdAt,value
2019-02-22T00:01:25.768Z,8.78
2019-02-22T00:03:55.140Z,7.10
2019-02-22T00:06:24.453Z,6.22
2019-02-22T00:08:53.869Z,6.17
2019-02-22T00:11:23.265Z,5.70
2019-02-22T00:13:52.622Z,5.10
2019-02-22T00:16:21.939Z,5.28
2019-02-22T00:18:51.314Z,5.58
2019-02-22T00:21:20.638Z,6.08
2019-02-22T00:23:50.059Z,5.50
2019-02-22T00:26:19.402Z,4.55
2019-02-22T00:28:48.713Z,4.60
2019-02-22T00:31:18.057Z,5.37
2019-02-22T00:33:47.369Z,5.30
2019-02-22T00:36:16.780Z,5.72
2019-02-22T00:38:46.115Z,4.95
2019-02-22T00:41:15.463Z,5.40
2019-02-22T00:43:44.851Z,5.85
2019-02-22T00:46:14.211Z,5.83
2019-02-22T00:48:43.550Z,4.53
2019-02-22T00:51:12.900Z,4.50
2019-02-22T00:53:42.219Z,4.45
2019-02-22T00:56:12.137Z,3.20
2019-02-22T00:58:41.465Z,3.27
2019-02-22T01:01:10.804Z,2.83
2019-02-22T01:03:40.150Z,2.98
2019-02-22T01:06:09.511Z,2.70
2019-02-22T01:08:38.833Z,1.75
2019-02-22T01:11:08.198Z,2.47
2019-02-22T01:13:37.510Z,2.90
2019-02-22T01:16:06.861Z,3.58
2019-02-22T01:18:36.184Z,4.62
2019-02-22T01:21:05.964Z,3.00
2019-02-22T01:23:35.286Z,3.12
2019-02-22T01:26:05.261Z,3.12
2019-02-22T01:28:35.020Z,3.12
2019-02-22T01:31:04.369Z,3.42
2019-02-22T01:33:33.697Z,3.20
2019-02-22T01:36:03.360Z,3.05
2019-02-22T01:38:32.683Z,2.85
2019-02-22T01:41:02.034Z,3.35
2019-02-22T01:43:33.410Z,4.10
2019-02-22T01:46:02.401Z,3.65
2019-02-22T01:48:31.722Z,5.12
2019-02-22T01:51:01.071Z,7.05
2019-02-22T01:53:30.388Z,6.03
2019-02-22T01:55:59.740Z,5.60
2019-02-22T01:58:29.076Z,4.33
2019-02-22T02:00:58.421Z,4.58
2019-02-22T02:03:27.739Z,4.20
2019-02-22T02:05:57.101Z,4.50
2019-02-22T02:08:26.407Z,4.17
2019-02-22T02:10:55.764Z,4.22
2019-02-22T02:13:25.654Z,4.28
2019-02-22T02:15:55.004Z,4.37
2019-02-22T02:18:24.326Z,3.80
2019-02-22T02:20:53.729Z,4.37
2019-02-22T02:23:23.207Z,4.33
2019-02-22T02:25:52.631Z,3.60
2019-02-22T02:28:21.950Z,3.67
2019-02-22T02:30:51.297Z,4.00
2019-02-22T02:33:20.608Z,4.25
2019-02-22T02:35:49.970Z,4.45
2019-02-22T02:38:19.290Z,4.37
2019-02-22T02:40:48.641Z,4.17
2019-02-22T02:43:18.029Z,3.92
2019-02-22T02:45:47.374Z,3.70
2019-02-22T02:48:16.714Z,3.42
2019-02-22T02:50:46.032Z,3.47
2019-02-22T02:53:15.367Z,3.70
2019-02-22T02:55:44.735Z,3.67
2019-02-22T02:58:14.042Z,3.65
2019-02-22T03:00:43.385Z,4.72
2019-02-22T03:03:12.720Z,4.67
2019-02-22T03:05:55.642Z,4.30
2019-02-22T03:08:26.606Z,4.78
2019-02-22T03:10:55.983Z,4.58
2019-02-22T03:13:25.305Z,4.67
2019-02-22T03:15:54.643Z,4.90
2019-02-22T03:18:23.997Z,4.58
2019-02-22T03:20:53.320Z,7.42
2019-02-22T03:23:22.666Z,8.40
2019-02-22T03:25:51.984Z,6.45
2019-02-22T03:28:21.361Z,5.83
2019-02-22T03:30:50.750Z,4.45
2019-02-22T03:33:20.093Z,4.05
2019-02-22T03:35:49.412Z,9.63
2019-02-22T03:38:18.775Z,15.00
2019-02-22T03:40:48.092Z,7.00
2019-02-22T03:43:17.442Z,4.35
2019-02-22T03:45:46.765Z,4.03
2019-02-22T03:48:16.125Z,4.25
2019-02-22T03:50:45.429Z,4.20
2019-02-22T03:53:25.471Z,4.22
2019-02-22T03:55:54.824Z,4.92
2019-02-22T03:58:24.128Z,4.20
2019-02-22T04:00:53.450Z,4.85
2019-02-22T04:03:22.790Z,3.83
2019-02-22T04:05:52.104Z,4.72
2019-02-22T04:08:21.449Z,5.03
2019-02-22T04:10:50.772Z,5.50
2019-02-22T04:13:20.123Z,5.85
2019-02-22T04:15:50.021Z,5.20
2019-02-22T04:18:19.376Z,5.03
2019-02-22T04:20:48.708Z,4.75
2019-02-22T04:23:18.054Z,5.72
2019-02-22T04:25:47.388Z,4.78
2019-02-22T04:28:16.739Z,5.20
2019-02-22T04:30:46.063Z,3.40
2019-02-22T04:33:15.431Z,4.67
2019-02-22T04:35:44.738Z,4.58
2019-02-22T04:38:14.078Z,4.42
2019-02-22T04:40:43.492Z,4.40
2019-02-22T04:43:12.840Z,4.03
2019-02-22T04:45:42.159Z,4.28
2019-02-22T04:48:11.505Z,5.15
2019-02-22T04:50:40.987Z,4.78
2019-02-22T04:53:10.418Z,4.00
2019-02-22T04:55:39.730Z,4.10
2019-02-22T04:58:09.070Z,3.80
2019-02-22T05:00:38.395Z,4.00
2019-02-22T05:03:07.756Z,5.05
2019-02-22T05:05:37.080Z,5.08
2019-02-22T05:08:06.690Z,5.25
2019-02-22T05:10:36.349Z,4.60
2019-02-22T05:13:05.758Z,4.17
2019-02-22T05:15:35.091Z,6.75
2019-02-22T05:18:04.451Z,4.20
2019-02-22T05:20:33.782Z,4.62
2019-02-22T05:23:05.322Z,10.50
2019-02-22T05:25:34.342Z,5.08
2019-02-22T05:28:03.748Z,6.37
2019-02-22T05:30:33.089Z,6.42
2019-02-22T05:33:02.434Z,6.03
2019-02-22T05:35:31.832Z,3.92
2019-02-22T05:38:01.976Z,4.28
2019-02-22T05:40:31.329Z,4.03
2019-02-22T05:43:00.645Z,6.00
2019-02-22T05:45:29.969Z,4.97
2019-02-22T05:47:59.321Z,4.67
2019-02-22T05:50:28.752Z,6.87
2019-02-22T05:52:58.115Z,4.92
2019-02-22T05:55:27.467Z,4.28
2019-02-22T05:57:56.794Z,4.95
2019-02-22T06:00:26.151Z,6.67
2019-02-22T06:02:55.467Z,6.05
2019-02-22T06:05:24.842Z,7.42
2019-02-22T06:07:54.189Z,7.58
2019-02-22T06:10:23.561Z,14.23
2019-02-22T06:12:54.517Z,9.38
2019-02-22T06:15:23.877Z,6.67
2019-02-22T06:17:53.208Z,10.85
2019-02-22T06:20:22.621Z,15.08
2019-02-22T06:22:51.924Z,59.18
2019-02-22T06:25:22.932Z,99.32
2019-02-22T06:27:52.282Z,172.43
2019-02-22T06:30:21.667Z,140.30
2019-02-22T06:32:51.030Z,104.38
2019-02-22T06:35:20.431Z,36.55
2019-02-22T06:37:49.830Z,99.32
2019-02-22T06:40:19.204Z,200.93
2019-02-22T06:42:48.564Z,74.03
2019-02-22T06:45:17.953Z,177.72
2019-02-22T06:47:49.926Z,113.28
2019-02-22T06:50:19.576Z,74.75
2019-02-22T06:52:48.919Z,70.95
2019-02-22T06:55:18.312Z,110.65
2019-02-22T06:57:47.641Z,34.33
2019-02-22T07:00:17.014Z,40.08
2019-02-22T07:02:46.607Z,32.20
2019-02-22T07:05:15.971Z,46.37
2019-02-22T07:07:45.371Z,17.07
2019-02-22T07:10:14.760Z,25.12
2019-02-22T07:12:56.579Z,30.92
2019-02-22T07:15:19.594Z,27.65
2019-02-22T07:17:49.208Z,31.68
2019-02-22T07:20:18.596Z,26.35
2019-02-22T07:22:48.898Z,19.55
2019-02-22T07:25:18.278Z,18.82
2019-02-22T07:27:47.632Z,21.85
2019-02-22T07:30:17.078Z,25.37
2019-02-22T07:32:46.972Z,21.52
2019-02-22T07:35:16.370Z,15.78
2019-02-22T07:37:45.696Z,9.35
2019-02-22T07:40:15.069Z,12.88
2019-02-22T07:42:44.378Z,9.03
2019-02-22T07:45:13.741Z,15.35
2019-02-22T07:47:43.077Z,14.30
2019-02-22T07:50:12.442Z,7.87
2019-02-22T07:52:41.758Z,9.18
2019-02-22T07:55:12.479Z,8.78
2019-02-22T07:57:41.830Z,10.72
2019-02-22T08:00:13.707Z,7.67
2019-02-22T08:02:43.029Z,9.15
2019-02-22T08:05:12.396Z,8.98
2019-02-22T08:07:41.723Z,7.55
2019-02-22T08:10:12.053Z,9.38
2019-02-22T08:12:41.384Z,11.10
2019-02-22T08:15:11.069Z,12.28
2019-02-22T08:17:40.438Z,12.30
2019-02-22T08:20:09.802Z,8.60
2019-02-22T08:22:39.128Z,6.12
2019-02-22T08:25:09.726Z,6.62
2019-02-22T08:27:40.219Z,8.88
2019-02-22T08:30:11.161Z,6.95
2019-02-22T08:32:40.496Z,8.50
2019-02-22T08:35:09.864Z,4.60
2019-02-22T08:37:39.185Z,7.08
2019-02-22T08:40:10.501Z,5.28
2019-02-22T08:42:39.830Z,5.45
2019-02-22T08:45:10.345Z,7.62
2019-02-22T08:47:39.670Z,4.28
2019-02-22T08:50:09.017Z,3.62
2019-02-22T08:52:38.365Z,5.67
2019-02-22T08:55:07.691Z,5.70
2019-02-22T08:57:37.599Z,4.87
2019-02-22T09:00:10.400Z,3.83
2019-02-22T09:02:39.752Z,4.30
2019-02-22T09:05:10.154Z,3.37
2019-02-22T09:07:39.511Z,4.25
2019-02-22T09:10:11.927Z,3.98
2019-02-22T09:12:41.301Z,3.83
2019-02-22T09:15:11.113Z,4.70
2019-02-22T09:17:40.484Z,4.60
2019-02-22T09:20:13.095Z,3.50
2019-02-22T09:22:42.588Z,4.10
2019-02-22T09:25:11.918Z,4.42
2019-02-22T09:27:41.516Z,4.00
2019-02-22T09:30:11.895Z,9.55
2019-02-22T09:32:41.293Z,10.75
2019-02-22T09:35:11.377Z,3.08
2019-02-22T09:37:40.734Z,3.30
2019-02-22T09:40:14.646Z,3.27
2019-02-22T09:42:43.110Z,2.65
2019-02-22T09:45:13.215Z,5.20
2019-02-22T09:47:42.583Z,4.80
2019-02-22T09:50:14.258Z,6.75
2019-02-22T09:52:43.693Z,6.58
2019-02-22T09:55:13.546Z,3.55
2019-02-22T09:57:42.933Z,2.60
2019-02-22T10:00:14.166Z,3.52
2019-02-22T10:02:44.806Z,3.50
2019-02-22T10:05:14.506Z,2.85
2019-02-22T10:07:43.873Z,3.45
2019-02-22T10:10:13.197Z,2.87
2019-02-22T10:12:42.557Z,4.28
2019-02-22T10:15:11.876Z,3.72
2019-02-22T10:17:41.334Z,2.87
2019-02-22T10:20:10.828Z,3.05
2019-02-22T10:22:40.201Z,2.92
2019-02-22T10:25:09.545Z,3.00
2019-02-22T10:27:38.877Z,2.70
2019-02-22T10:30:12.368Z,2.52
2019-02-22T10:32:41.719Z,3.65
2019-02-22T10:35:11.049Z,9.08
2019-02-22T10:37:40.407Z,8.18
2019-02-22T10:40:10.282Z,2.77
2019-02-22T10:42:39.638Z,5.37
2019-02-22T10:45:10.411Z,4.92
2019-02-22T10:47:39.780Z,4.60
2019-02-22T10:50:10.232Z,3.70
2019-02-22T10:52:39.604Z,4.83
2019-02-22T10:55:11.169Z,6.78
2019-02-22T10:57:40.549Z,2.65
2019-02-22T11:00:12.858Z,2.70
2019-02-22T11:02:42.238Z,2.72
2019-02-22T11:05:11.569Z,2.62
2019-02-22T11:07:41.218Z,4.12
2019-02-22T11:10:12.211Z,2.60
2019-02-22T11:12:41.551Z,5.12
2019-02-22T11:15:12.442Z,7.75
2019-02-22T11:17:41.766Z,4.03
2019-02-22T11:20:11.661Z,8.55
2019-02-22T11:22:40.995Z,9.75
2019-02-22T11:25:16.796Z,6.58
2019-02-22T11:27:46.097Z,4.97
2019-02-22T11:30:15.620Z,4.08
2019-02-22T11:32:44.955Z,3.80
2019-02-22T11:35:14.387Z,3.47
2019-02-22T11:37:43.715Z,4.28
2019-02-22T11:40:13.076Z,4.67
2019-02-22T11:42:42.405Z,9.30
2019-02-22T11:45:11.777Z,4.62
2019-02-22T11:47:41.101Z,5.47
2019-02-22T11:50:11.397Z,3.33
2019-02-22T11:52:40.713Z,3.33
2019-02-22T11:55:10.946Z,4.65
2019-02-22T11:57:40.296Z,2.83
2019-02-22T12:00:17.149Z,4.58
2019-02-22T12:02:47.210Z,4.45
2019-02-22T12:05:16.663Z,4.15
2019-02-22T12:07:45.989Z,3.58
2019-02-22T12:10:15.345Z,4.90
2019-02-22T12:12:44.673Z,4.67
2019-02-22T12:15:14.477Z,3.00
2019-02-22T12:17:43.807Z,3.33
2019-02-22T12:20:13.157Z,5.08
2019-02-22T12:22:42.493Z,3.87
2019-02-22T12:25:12.797Z,2.92
2019-02-22T12:27:42.121Z,4.62
2019-02-22T12:30:16.087Z,3.87
2019-02-22T12:32:45.417Z,4.00
2019-02-22T12:35:14.781Z,3.50
2019-02-22T12:37:44.111Z,4.62
2019-02-22T12:40:14.547Z,5.78
2019-02-22T12:42:43.878Z,3.35
2019-02-22T12:45:13.648Z,4.25
2019-02-22T12:47:42.986Z,5.30
2019-02-22T12:50:13.195Z,2.65
2019-02-22T12:52:42.522Z,5.37
2019-02-22T12:55:11.884Z,3.22
2019-02-22T12:57:41.384Z,3.95
2019-02-22T13:00:18.630Z,3.85
2019-02-22T13:02:48.113Z,4.37
2019-02-22T13:05:19.621Z,4.37
2019-02-22T13:07:48.953Z,7.75
2019-02-22T13:10:18.314Z,8.58
2019-02-22T13:12:47.647Z,21.33
2019-02-22T13:15:17.016Z,8.28
2019-02-22T13:17:46.347Z,10.90
2019-02-22T13:20:15.717Z,14.28
2019-02-22T13:22:45.084Z,9.33
2019-02-22T13:25:14.468Z,8.70
2019-02-22T13:27:43.827Z,8.43
2019-02-22T13:30:14.590Z,9.40
2019-02-22T13:32:43.955Z,8.53
2019-02-22T13:35:13.286Z,5.90
2019-02-22T13:37:42.638Z,8.93
2019-02-22T13:40:15.966Z,6.00
2019-02-22T13:42:45.341Z,4.37
2019-02-22T13:45:26.111Z,4.08
2019-02-22T13:47:45.974Z,4.58
2019-02-22T13:50:16.146Z,5.78
2019-02-22T13:52:45.594Z,6.28
2019-02-22T13:55:14.995Z,5.75
2019-02-22T13:57:44.354Z,5.08
2019-02-22T14:00:16.287Z,7.22
2019-02-22T14:02:45.652Z,4.65
2019-02-22T14:05:14.988Z,14.05
2019-02-22T14:07:56.932Z,41.58
2019-02-22T14:10:26.484Z,5.58
2019-02-22T14:12:55.915Z,9.28
2019-02-22T14:15:25.232Z,6.37
2019-02-22T14:17:54.588Z,5.60
2019-02-22T14:20:23.924Z,10.80
2019-02-22T14:22:53.335Z,9.48
2019-02-22T14:25:22.630Z,10.68
2019-02-22T14:27:51.995Z,13.25
2019-02-22T14:30:21.400Z,4.12
2019-02-22T14:32:50.777Z,10.15
2019-02-22T14:35:20.098Z,7.05
2019-02-22T14:37:49.462Z,5.35
2019-02-22T14:40:18.795Z,3.62
2019-02-22T14:42:48.302Z,5.58
2019-02-22T14:45:17.627Z,15.25
2019-02-22T14:47:46.988Z,19.05
2019-02-22T14:50:18.142Z,8.23
2019-02-22T14:52:47.482Z,12.70
2019-02-22T14:55:16.823Z,7.15
2019-02-22T14:57:46.212Z,4.55
2019-02-22T15:00:19.932Z,4.83
2019-02-22T15:02:49.290Z,6.05
2019-02-22T15:05:18.623Z,6.65
2019-02-22T15:07:48.196Z,6.55
2019-02-22T15:10:18.770Z,14.10
2019-02-22T15:12:48.297Z,9.15
2019-02-22T15:15:22.920Z,8.43
2019-02-22T15:17:53.921Z,7.08
2019-02-22T15:20:23.321Z,7.28
2019-02-22T15:22:52.683Z,4.90
2019-02-22T15:25:22.015Z,9.28
2019-02-22T15:27:51.364Z,9.28
2019-02-22T15:30:20.803Z,18.25
2019-02-22T15:32:50.121Z,13.75
2019-02-22T15:35:19.451Z,9.98
2019-02-22T15:37:48.809Z,12.65
2019-02-22T15:40:18.143Z,9.50
2019-02-22T15:42:47.495Z,5.15
2019-02-22T15:45:17.975Z,16.65
2019-02-22T15:47:48.831Z,13.72
2019-02-22T15:50:19.204Z,24.82
2019-02-22T15:52:49.595Z,12.95
2019-02-22T15:55:18.925Z,10.32
2019-02-22T15:57:48.278Z,8.00
2019-02-22T16:00:23.630Z,9.33
2019-02-22T16:02:53.006Z,8.90
2019-02-22T16:05:32.890Z,9.98
2019-02-22T16:08:02.246Z,13.15
2019-02-22T16:10:31.680Z,7.65
2019-02-22T16:13:01.018Z,12.13
2019-02-22T16:15:30.370Z,10.58
2019-02-22T16:17:59.717Z,9.53
2019-02-22T16:20:29.050Z,10.23
2019-02-22T16:22:58.411Z,7.42
2019-02-22T16:25:27.747Z,7.80
2019-02-22T16:27:57.099Z,9.63
2019-02-22T16:30:28.199Z,6.90
2019-02-22T16:32:57.568Z,7.08
2019-02-22T16:35:26.885Z,9.05
2019-02-22T16:37:56.246Z,8.10
2019-02-22T16:40:25.589Z,8.75
2019-02-22T16:42:54.931Z,11.05
2019-02-22T16:45:24.301Z,10.58
2019-02-22T16:47:53.639Z,9.43
2019-02-22T16:50:23.022Z,9.38
2019-02-22T16:52:52.346Z,8.05
2019-02-22T16:55:24.069Z,7.62
2019-02-22T16:57:53.393Z,8.98
2019-02-22T17:00:22.769Z,10.20
2019-02-22T17:02:52.099Z,12.70
2019-02-22T17:05:21.477Z,29.20
2019-02-22T17:07:50.821Z,18.17
2019-02-22T17:10:20.190Z,17.55
2019-02-22T17:12:49.524Z,24.45
2019-02-22T17:15:18.891Z,31.93
2019-02-22T17:17:48.390Z,18.52
2019-02-22T17:20:19.273Z,15.40
2019-02-22T17:22:48.621Z,9.40
2019-02-22T17:25:19.497Z,7.37
2019-02-22T17:27:48.821Z,15.00
2019-02-22T17:30:19.811Z,29.77
2019-02-22T17:32:49.213Z,26.35
2019-02-22T17:35:18.579Z,33.48
2019-02-22T17:37:48.133Z,32.00
2019-02-22T17:40:28.510Z,29.75
2019-02-22T17:42:57.906Z,38.78
2019-02-22T17:45:27.290Z,37.45
2019-02-22T17:47:56.639Z,112.05
2019-02-22T17:50:26.010Z,37.05
2019-02-22T17:52:55.341Z,71.90
2019-02-22T17:55:24.721Z,98.65
2019-02-22T17:57:54.226Z,36.17
2019-02-22T18:00:25.236Z,23.38
2019-02-22T18:02:54.561Z,25.88
2019-02-22T18:05:23.918Z,21.23
2019-02-22T18:07:53.257Z,11.65
2019-02-22T18:10:22.619Z,10.00
2019-02-22T18:12:51.946Z,9.68
2019-02-22T18:15:21.316Z,14.85
2019-02-22T18:17:50.669Z,15.83
2019-02-22T18:20:20.019Z,20.35
2019-02-22T18:22:49.359Z,46.63
2019-02-22T18:25:18.713Z,30.88
2019-02-22T18:27:48.235Z,58.60
2019-02-22T18:30:22.450Z,72.17
2019-02-22T18:32:51.790Z,50.33
2019-02-22T18:35:21.157Z,44.03
2019-02-22T18:37:50.502Z,13.90
2019-02-22T18:40:22.063Z,19.27
2019-02-22T18:42:51.397Z,21.23
2019-02-22T18:45:20.929Z,48.73
2019-02-22T18:47:50.294Z,29.32
2019-02-22T18:50:19.620Z,74.05
2019-02-22T18:52:48.955Z,47.23
2019-02-22T18:55:18.315Z,30.72
2019-02-22T18:57:47.689Z,23.20
2019-02-22T19:00:20.170Z,44.90
2019-02-22T19:02:49.591Z,67.27
2019-02-22T19:05:18.958Z,42.75
2019-02-22T19:07:48.305Z,34.00
2019-02-22T19:10:18.623Z,35.40
2019-02-22T19:12:47.969Z,41.60
2019-02-22T19:15:17.339Z,38.45
2019-02-22T19:17:46.671Z,47.62
2019-02-22T19:20:20.712Z,50.10
2019-02-22T19:22:50.054Z,31.65
2019-02-22T19:25:19.423Z,33.35
2019-02-22T19:27:48.763Z,29.37
2019-02-22T19:30:19.595Z,33.42
2019-02-22T19:32:48.932Z,36.55
2019-02-22T19:35:18.299Z,49.98
2019-02-22T19:37:47.683Z,67.95
2019-02-22T19:40:24.524Z,46.35
2019-02-22T19:42:53.895Z,38.48
2019-02-22T19:45:23.280Z,41.37
2019-02-22T19:47:52.639Z,48.10
2019-02-22T19:50:21.975Z,40.45
2019-02-22T19:52:51.353Z,36.80
2019-02-22T19:55:20.782Z,40.52
2019-02-22T19:57:50.164Z,42.98
2019-02-22T20:00:19.883Z,54.63
2019-02-22T20:02:49.267Z,43.58
2019-02-22T20:05:18.618Z,36.48
2019-02-22T20:07:48.092Z,145.07
2019-02-22T20:10:18.761Z,104.07
2019-02-22T20:12:48.371Z,76.55
2019-02-22T20:15:18.083Z,77.20
2019-02-22T20:17:54.210Z,90.53
2019-02-22T20:20:20.011Z,40.05
2019-02-22T20:22:49.366Z,35.13
2019-02-22T20:25:18.758Z,30.95
2019-02-22T20:27:48.127Z,28.35
2019-02-22T20:30:19.487Z,25.20
2019-02-22T20:32:49.739Z,25.23
2019-02-22T20:35:25.885Z,25.80
2019-02-22T20:37:55.249Z,26.40
2019-02-22T20:40:24.584Z,25.08
2019-02-22T20:42:53.947Z,28.67
2019-02-22T20:45:23.344Z,32.08
2019-02-22T20:48:04.186Z,36.10
2019-02-22T20:50:23.835Z,29.85
2019-02-22T20:52:53.213Z,30.72
2019-02-22T20:55:25.226Z,32.38
2019-02-22T20:57:54.613Z,31.87
2019-02-22T21:00:25.679Z,36.98
2019-02-22T21:02:55.038Z,41.28
2019-02-22T21:05:24.383Z,38.90
2019-02-22T21:07:53.838Z,41.63
2019-02-22T21:10:23.651Z,45.63
2019-02-22T21:12:53.038Z,54.63
2019-02-22T21:15:22.395Z,59.98
2019-02-22T21:17:51.781Z,63.35
2019-02-22T21:20:22.380Z,53.48
2019-02-22T21:22:52.525Z,47.70
2019-02-22T21:25:21.870Z,52.25
2019-02-22T21:27:51.352Z,53.95
2019-02-22T21:30:21.519Z,49.48
2019-02-22T21:32:50.897Z,42.20
2019-02-22T21:35:20.281Z,38.35
2019-02-22T21:37:49.647Z,41.75
2019-02-22T21:40:19.039Z,32.65
2019-02-22T21:42:48.384Z,33.88
2019-02-22T21:45:17.817Z,34.58
2019-02-22T21:47:54.812Z,32.63
2019-02-22T21:50:18.267Z,31.35
2019-02-22T21:52:47.629Z,32.93
2019-02-22T21:55:17.564Z,29.20
2019-02-22T21:57:46.935Z,29.85
2019-02-22T22:00:29.476Z,51.45
2019-02-22T22:02:58.862Z,37.00
2019-02-22T22:05:28.237Z,35.35
2019-02-22T22:07:57.607Z,35.68
2019-02-22T22:10:26.947Z,32.25
2019-02-22T22:12:56.324Z,37.85
2019-02-22T22:15:25.669Z,29.48
2019-02-22T22:17:55.032Z,28.35
2019-02-22T22:20:24.372Z,30.65
2019-02-22T22:22:53.727Z,28.30
2019-02-22T22:25:23.061Z,26.02
2019-02-22T22:27:52.424Z,20.52
2019-02-22T22:30:21.757Z,24.05
2019-02-22T22:32:52.640Z,28.52
2019-02-22T22:35:22.160Z,33.95
2019-02-22T22:37:51.587Z,31.93
2019-02-22T22:40:20.935Z,30.57
2019-02-22T22:42:50.307Z,33.40
2019-02-22T22:45:19.725Z,53.70
2019-02-22T22:47:49.088Z,88.03
2019-02-22T22:50:18.422Z,64.00
2019-02-22T22:52:47.800Z,20.00
2019-02-22T22:55:17.136Z,21.42
2019-02-22T22:57:46.523Z,24.07
2019-02-22T23:00:29.694Z,31.45
2019-02-22T23:02:59.063Z,54.58
2019-02-22T23:05:28.405Z,56.28
2019-02-22T23:07:57.774Z,53.52
2019-02-22T23:10:27.146Z,48.73
2019-02-22T23:12:56.493Z,43.35
2019-02-22T23:15:25.855Z,33.88
2019-02-22T23:17:55.195Z,46.18
2019-02-22T23:20:24.567Z,53.23
2019-02-22T23:22:53.912Z,55.40
2019-02-22T23:25:23.288Z,47.83
2019-02-22T23:27:52.624Z,47.45
2019-02-22T23:30:21.989Z,47.38
2019-02-22T23:32:51.336Z,51.58
2019-02-22T23:35:20.775Z,49.53
2019-02-22T23:37:50.111Z,48.23
2019-02-22T23:40:19.478Z,39.33
2019-02-22T23:42:48.815Z,44.42
2019-02-22T23:45:18.182Z,49.08
2019-02-22T23:47:47.517Z,50.85
2019-02-22T23:50:16.887Z,55.92
2019-02-22T23:52:46.299Z,53.40
2019-02-22T23:55:15.669Z,53.73
2019-02-22T23:57:45.010Z,47.05
